Time;durP1;ratioP1;P1;durP2;ratioP2;P2;SDS_P1;SDS_P2;PMS_P1;PMS_P2;Temp;Humidity;BMP_temperature;BMP_pressure;BME280_temperature;BME280_humidity;BME280_pressure;Samples;Min_cycle;Max_cycle;Signal;HPM_P1;HPM_P2
2023/05/17 00:00:16;;;;;;;7.18;3.05;;;;;;;7.40;93.80;99971.00;5105922;27;20440;-61
2023/05/17 00:02:43;;;;;;;6.75;2.70;;;;;;;7.41;93.66;99972.63;5098987;28;20150;-61
2023/05/17 00:05:13;;;;;;;9.48;2.65;;;;;;;7.37;94.20;99971.41;5108805;27;20115;-61
2023/05/17 00:07:40;;;;;;;9.02;2.85;;;;;;;7.41;94.76;99969.13;5103305;28;20047;-61
2023/05/17 00:10:08;;;;;;;8.48;2.95;;;;;;;7.40;94.20;99971.00;5099703;28;20116;-61
2023/05/17 00:12:35;;;;;;;9.30;3.20;;;;;;;7.40;94.43;99968.31;5099271;28;20119;-63
2023/05/17 00:15:02;;;;;;;9.77;2.78;;;;;;;7.46;95.87;99978.19;5079918;28;20489;-63
2023/05/17 00:17:30;;;;;;;6.07;2.63;;;;;;;7.50;97.10;99984.75;5100822;28;20043;-61
2023/05/17 00:19:57;;;;;;;8.38;3.00;;;;;;;7.46;95.31;99975.53;5104205;28;20040;-63
2023/05/17 00:22:24;;;;;;;8.48;2.97;;;;;;;7.40;94.76;99981.66;5096223;28;20039;-61
2023/05/17 00:24:51;;;;;;;9.57;2.80;;;;;;;7.35;94.08;99976.94;5099390;28;20047;-63
2023/05/17 00:27:18;;;;;;;11.40;2.88;;;;;;;7.42;94.38;99978.81;5098758;28;20052;-61
2023/05/17 00:29:45;;;;;;;7.75;3.13;;;;;;;7.48;93.87;99968.13;5082151;28;20040;-62
2023/05/17 00:32:12;;;;;;;8.32;2.90;;;;;;;7.46;93.86;99975.53;5081819;28;20035;-62
2023/05/17 00:34:41;;;;;;;8.38;2.67;;;;;;;7.43;94.32;99975.91;5105053;28;20483;-63
2023/05/17 00:37:08;;;;;;;13.05;3.22;;;;;;;7.41;94.58;99977.94;5100867;28;20035;-62
2023/05/17 00:39:35;;;;;;;11.77;2.80;;;;;;;7.37;94.77;99975.94;5103189;28;20078;-62
2023/05/17 00:42:02;;;;;;;12.20;3.10;;;;;;;7.35;94.98;99973.44;5100832;28;20053;-62
2023/05/17 00:44:29;;;;;;;8.20;2.67;;;;;;;7.29;95.80;99985.75;5100503;28;20048;-62
2023/05/17 00:46:58;;;;;;;8.30;2.80;;;;;;;7.21;96.06;99982.44;5086473;28;20047;-62
2023/05/17 00:49:25;;;;;;;8.18;2.90;;;;;;;7.28;98.18;99988.63;5075398;28;20074;-62
2023/05/17 00:51:54;;;;;;;10.35;2.70;;;;;;;7.15;98.16;99993.94;5101057;28;20057;-62
2023/05/17 00:54:21;;;;;;;15.52;3.15;;;;;;;7.11;97.12;99986.34;5100991;28;20047;-62
2023/05/17 00:56:48;;;;;;;14.77;2.95;;;;;;;7.13;97.94;99996.78;5098470;28;20043;-62
2023/05/17 00:59:15;;;;;;;17.90;4.18;;;;;;;7.18;99.06;99988.19;5098653;28;20035;-62
2023/05/17 01:01:42;;;;;;;11.98;3.25;;;;;;;7.10;97.77;100003.34;5091665;28;20471;-62
2023/05/17 01:04:09;;;;;;;8.80;2.97;;;;;;;6.93;98.86;99991.38;5079506;28;20047;-62
2023/05/17 01:06:37;;;;;;;15.48;3.67;;;;;;;7.01;98.50;100001.88;5099628;27;20056;-62
2023/05/17 01:09:07;;;;;;;7.85;3.28;;;;;;;7.04;99.46;100006.81;5091315;28;20162;-62
2023/05/17 01:11:39;;;;;;;10.32;3.90;;;;;;;6.97;99.31;100003.31;5096803;28;20139;-62
2023/05/17 01:14:13;;;;;;;9.32;3.30;;;;;;;6.97;99.83;100000.63;5104208;28;20061;-62
2023/05/17 01:16:42;;;;;;;10.70;4.07;;;;;;;6.91;99.96;100009.41;5084561;28;20445;-62
2023/05/17 01:19:13;;;;;;;10.68;3.22;;;;;;;6.93;100.00;100010.03;5099293;28;20040;-63
2023/05/17 01:21:47;;;;;;;10.15;3.60;;;;;;;6.89;99.61;100006.16;5105930;28;20122;-62
2023/05/17 01:24:25;;;;;;;10.23;3.17;;;;;;;7.01;99.55;100015.19;5094362;28;20101;-63
2023/05/17 01:26:54;;;;;;;11.52;3.70;;;;;;;6.99;100.00;100021.75;5100810;27;20054;-62
2023/05/17 01:29:25;;;;;;;8.98;3.70;;;;;;;6.93;99.82;100018.03;5104906;28;20042;-62
2023/05/17 01:31:52;;;;;;;8.63;3.45;;;;;;;6.89;100.00;100016.81;5101149;28;20039;-63
2023/05/17 01:34:25;;;;;;;12.80;3.80;;;;;;;6.82;100.00;100015.97;5097577;28;20350;-62
2023/05/17 01:36:52;;;;;;;8.63;3.30;;;;;;;6.82;100.00;100023.94;5104856;28;20055;-62
2023/05/17 01:39:19;;;;;;;9.70;3.45;;;;;;;6.79;100.00;100019.00;5101027;28;20078;-63
2023/05/17 01:41:47;;;;;;;8.02;3.40;;;;;;;6.81;100.00;100025.78;5080073;28;20131;-62
2023/05/17 01:44:19;;;;;;;11.68;3.55;;;;;;;6.78;100.00;100030.69;5102944;28;20489;-62
2023/05/17 01:46:48;;;;;;;6.07;3.00;;;;;;;6.76;100.00;100035.38;5095827;28;20052;-63
2023/05/17 01:49:18;;;;;;;8.52;3.60;;;;;;;6.82;100.00;100031.94;5108479;28;20378;-63
2023/05/17 01:51:47;;;;;;;10.80;3.35;;;;;;;6.81;100.00;100030.28;5107320;27;20066;-63
2023/05/17 01:54:15;;;;;;;7.72;3.40;;;;;;;6.81;100.00;100033.75;5085385;28;20123;-63
2023/05/17 01:56:44;;;;;;;9.25;3.50;;;;;;;6.73;100.00;100039.28;5099312;28;20047;-62
2023/05/17 01:59:11;;;;;;;9.10;3.38;;;;;;;6.73;100.00;100038.44;5082026;28;20064;-63
2023/05/17 02:01:40;;;;;;;9.00;3.20;;;;;;;6.68;100.00;100036.38;5101772;28;20028;-63
2023/05/17 02:04:07;;;;;;;7.55;3.33;;;;;;;6.63;100.00;100038.81;5104482;27;20032;-63
2023/05/17 02:06:34;;;;;;;13.70;3.70;;;;;;;6.67;100.00;100042.72;5107198;28;22447;-63
2023/05/17 02:09:01;;;;;;;9.63;3.80;;;;;;;6.59;100.00;100049.03;5100449;28;20075;-62
2023/05/17 02:11:28;;;;;;;13.35;3.83;;;;;;;6.63;100.00;100050.28;5088923;27;20042;-62
2023/05/17 02:13:57;;;;;;;11.82;3.50;;;;;;;6.55;100.00;100047.78;5105971;27;20028;-62
2023/05/17 02:16:25;;;;;;;6.65;3.30;;;;;;;6.65;100.00;100040.25;5084338;28;20055;-62
2023/05/17 02:18:54;;;;;;;7.60;3.70;;;;;;;6.53;100.00;100047.16;5104972;28;20376;-62
2023/05/17 02:21:21;;;;;;;12.50;4.07;;;;;;;6.48;100.00;100049.56;5085359;28;20089;-62
2023/05/17 02:23:48;;;;;;;13.23;3.40;;;;;;;6.37;100.00;100042.16;5097646;28;20128;-62
2023/05/17 02:26:15;;;;;;;8.65;3.45;;;;;;;6.42;100.00;100042.38;5082506;28;20127;-63
2023/05/17 02:28:42;;;;;;;7.82;3.72;;;;;;;6.35;100.00;100042.34;5095886;28;20052;-62
2023/05/17 02:31:08;;;;;;;13.80;4.43;;;;;;;6.29;100.00;100048.44;5082125;28;20131;-62
2023/05/17 02:33:36;;;;;;;14.00;4.68;;;;;;;6.27;100.00;100050.47;5099933;28;20044;-62
2023/05/17 02:36:05;;;;;;;9.30;4.03;;;;;;;6.26;100.00;100051.47;5100106;28;20043;-62
2023/05/17 02:38:31;;;;;;;8.63;4.13;;;;;;;6.35;100.00;100049.50;5103192;28;20055;-63
2023/05/17 02:40:58;;;;;;;18.40;4.97;;;;;;;6.34;100.00;100050.50;5091926;28;20046;-62
2023/05/17 02:43:25;;;;;;;10.52;4.22;;;;;;;6.36;100.00;100053.81;5085499;28;20294;-62
2023/05/17 02:45:52;;;;;;;9.65;4.50;;;;;;;6.25;100.00;100053.31;5100967;28;20058;-62
2023/05/17 02:48:19;;;;;;;6.85;3.33;;;;;;;6.14;100.00;100056.53;5096851;28;20039;-62
2023/05/17 02:50:49;;;;;;;15.02;4.97;;;;;;;6.28;100.00;100046.78;5078001;28;20063;-62
2023/05/17 02:53:18;;;;;;;17.08;5.38;;;;;;;6.39;100.00;100056.91;5080042;28;20044;-62
2023/05/17 02:55:45;;;;;;;12.43;4.88;;;;;;;6.53;100.00;100057.00;5087908;28;20066;-63
2023/05/17 02:58:13;;;;;;;14.35;4.75;;;;;;;6.52;100.00;100056.16;5090185;28;20043;-62
2023/05/17 03:00:40;;;;;;;17.38;4.90;;;;;;;6.30;100.00;100054.59;5083012;28;20435;-62
2023/05/17 03:03:07;;;;;;;15.52;4.82;;;;;;;6.18;100.00;100060.44;5076607;28;20051;-62
2023/05/17 03:05:34;;;;;;;9.40;4.72;;;;;;;6.15;100.00;100057.34;5094622;28;20446;-62
2023/05/17 03:08:01;;;;;;;11.63;5.60;;;;;;;6.00;100.00;100055.59;5084633;28;20105;-63
2023/05/17 03:10:30;;;;;;;15.02;5.05;;;;;;;5.98;100.00;100052.28;5087808;28;20071;-62
2023/05/17 03:12:57;;;;;;;12.48;5.18;;;;;;;6.00;100.00;100054.78;5082251;28;20503;-63
2023/05/17 03:15:29;;;;;;;11.38;5.85;;;;;;;6.00;100.00;100060.09;5064944;28;20592;-62
2023/05/17 03:17:57;;;;;;;10.93;5.55;;;;;;;6.01;100.00;100059.06;5082610;28;20105;-62
2023/05/17 03:20:24;;;;;;;12.43;5.32;;;;;;;6.05;100.00;100060.34;5082120;28;20071;-62
2023/05/17 03:22:51;;;;;;;8.25;5.28;;;;;;;6.01;100.00;100051.09;5093218;28;20360;-62
2023/05/17 03:25:19;;;;;;;10.57;5.38;;;;;;;6.09;100.00;100058.94;5080791;28;20123;-62
2023/05/17 03:27:47;;;;;;;10.15;5.25;;;;;;;6.00;100.00;100057.44;5089468;28;20390;-62
2023/05/17 03:30:15;;;;;;;12.63;5.65;;;;;;;6.05;100.00;100061.16;5087464;28;20077;-62
2023/05/17 03:32:42;;;;;;;17.30;6.25;;;;;;;6.03;100.00;100057.03;5081460;28;20047;-62
2023/05/17 03:35:09;;;;;;;13.55;6.90;;;;;;;6.15;100.00;100062.69;5086715;28;20136;-62
2023/05/17 03:37:37;;;;;;;12.93;7.18;;;;;;;6.14;100.00;100064.53;5084859;28;20088;-62
2023/05/17 03:40:06;;;;;;;13.18;6.75;;;;;;;6.14;100.00;100072.50;5088245;28;20038;-62
2023/05/17 03:42:33;;;;;;;12.73;7.43;;;;;;;6.17;100.00;100076.63;5098015;28;20067;-62
2023/05/17 03:45:02;;;;;;;10.32;6.32;;;;;;;6.17;100.00;100072.13;5090290;28;20819;-62
2023/05/17 03:47:30;;;;;;;11.75;7.10;;;;;;;6.29;100.00;100074.22;5087222;28;20424;-62
2023/05/17 03:49:57;;;;;;;11.50;6.55;;;;;;;6.34;100.00;100082.47;5092777;28;20085;-62
2023/05/17 03:52:24;;;;;;;13.70;6.68;;;;;;;6.33;100.00;100080.81;5088102;28;20043;-62
2023/05/17 03:54:51;;;;;;;11.45;6.97;;;;;;;6.25;100.00;100079.13;5105754;28;20150;-62
2023/05/17 03:57:19;;;;;;;11.55;7.05;;;;;;;6.34;100.00;100085.13;5078650;28;20046;-62
2023/05/17 03:59:46;;;;;;;13.93;7.10;;;;;;;6.20;100.00;100084.22;5098138;28;20048;-62
2023/05/17 04:02:16;;;;;;;10.57;6.82;;;;;;;6.24;100.00;100088.97;5074629;28;20047;-62
2023/05/17 04:04:49;;;;;;;16.50;7.35;;;;;;;6.25;100.00;100084.47;5080638;28;20051;-62
2023/05/17 04:07:16;;;;;;;16.23;6.43;;;;;;;6.35;100.00;100086.78;5085628;28;20774;-62
2023/05/17 04:09:43;;;;;;;13.75;7.00;;;;;;;6.38;100.00;100089.06;5105454;28;20048;-62
2023/05/17 04:12:10;;;;;;;14.30;6.75;;;;;;;6.44;100.00;100082.94;5103511;28;20119;-62
2023/05/17 04:14:37;;;;;;;12.13;6.90;;;;;;;6.47;100.00;100087.91;5085555;28;20160;-62
2023/05/17 04:17:04;;;;;;;16.40;6.30;;;;;;;6.54;100.00;100088.75;5086007;28;20047;-62
2023/05/17 04:19:33;;;;;;;15.27;6.15;;;;;;;6.49;100.00;100096.53;5081784;28;20381;-61
2023/05/17 04:22:00;;;;;;;14.52;6.78;;;;;;;6.56;100.00;100097.34;5103560;28;20051;-63
2023/05/17 04:24:28;;;;;;;16.67;6.35;;;;;;;6.62;100.00;100099.25;5081839;28;20387;-61
2023/05/17 04:26:55;;;;;;;16.17;6.82;;;;;;;6.66;100.00;100102.34;5096770;28;20044;-63
2023/05/17 04:29:25;;;;;;;12.13;6.32;;;;;;;6.68;100.00;100103.78;5081844;28;20458;-62
2023/05/17 04:31:52;;;;;;;17.77;6.68;;;;;;;6.79;100.00;100102.44;5084996;28;20155;-63
2023/05/17 04:34:21;;;;;;;21.48;6.22;;;;;;;6.80;100.00;100105.94;5076594;28;20048;-63
2023/05/17 04:36:49;;;;;;;10.70;5.93;;;;;;;6.73;100.00;100113.06;5086246;28;20048;-62
2023/05/17 04:39:17;;;;;;;18.05;6.93;;;;;;;6.80;100.00;100108.59;5069106;28;20158;-63
2023/05/17 04:41:44;;;;;;;12.07;6.25;;;;;;;6.91;100.00;100116.00;5077957;28;20052;-62
2023/05/17 04:44:16;;;;;;;17.33;6.78;;;;;;;7.00;100.00;100114.84;5082509;28;20096;-62
2023/05/17 04:46:45;;;;;;;13.82;6.22;;;;;;;6.99;100.00;100115.03;5079536;28;20048;-63
2023/05/17 04:49:13;;;;;;;13.43;6.53;;;;;;;7.12;100.00;100113.25;5084441;28;20044;-62
2023/05/17 04:51:41;;;;;;;16.48;6.15;;;;;;;7.28;100.00;100105.94;5085920;28;20436;-63
2023/05/17 04:54:11;;;;;;;18.52;7.05;;;;;;;7.98;100.00;100102.00;5077441;28;20121;-63
2023/05/17 04:56:38;;;;;;;14.73;5.95;;;;;;;8.50;100.00;100101.41;5080235;28;20048;-63
2023/05/17 04:59:10;;;;;;;14.07;5.53;;;;;;;8.59;98.72;100108.19;5078802;28;20106;-62
2023/05/17 05:01:37;;;;;;;12.63;5.57;;;;;;;8.84;95.75;100111.84;5080421;28;20039;-63
2023/05/17 05:04:05;;;;;;;13.60;5.82;;;;;;;9.29;94.42;100119.94;5073318;28;20040;-63
2023/05/17 05:06:37;;;;;;;17.80;6.28;;;;;;;8.41;96.38;100123.00;5083730;28;20074;-62
2023/05/17 05:09:04;;;;;;;14.50;5.78;;;;;;;8.27;97.55;100125.84;5097168;28;20139;-62
2023/05/17 05:11:36;;;;;;;16.65;6.35;;;;;;;7.95;100.00;100142.44;5080729;28;20093;-62
2023/05/17 05:14:04;;;;;;;14.90;5.83;;;;;;;7.71;100.00;100137.66;5079832;28;20363;-62
2023/05/17 05:16:31;;;;;;;15.38;6.65;;;;;;;7.78;100.00;100146.53;5100241;28;20841;-63
2023/05/17 05:18:58;;;;;;;14.38;6.47;;;;;;;7.59;100.00;100144.59;5089959;28;20039;-62
2023/05/17 05:21:25;;;;;;;16.85;7.60;;;;;;;7.30;100.00;100150.06;5112512;28;20477;-62
2023/05/17 05:23:52;;;;;;;19.80;8.93;;;;;;;7.37;100.00;100155.44;5082737;28;20205;-63
2023/05/17 05:26:20;;;;;;;20.88;9.98;;;;;;;7.25;100.00;100159.69;5075896;28;20052;-62
2023/05/17 05:28:48;;;;;;;27.80;11.77;;;;;;;7.45;100.00;100160.59;5076174;28;20119;-62
2023/05/17 05:31:15;;;;;;;23.25;12.18;;;;;;;7.33;100.00;100162.97;5083669;28;20044;-62
2023/05/17 05:33:48;;;;;;;31.55;13.43;;;;;;;7.55;100.00;100157.53;5078011;28;20044;-62
2023/05/17 05:36:15;;;;;;;28.75;13.40;;;;;;;7.54;100.00;100170.06;5065110;28;20051;-62
2023/05/17 05:38:42;;;;;;;34.25;14.27;;;;;;;7.53;100.00;100168.41;5108588;28;20164;-62
2023/05/17 05:41:09;;;;;;;32.08;15.52;;;;;;;7.36;100.00;100172.44;5095615;28;20568;-61
2023/05/17 05:43:37;;;;;;;35.03;15.50;;;;;;;7.51;100.00;100170.47;5074128;28;20055;-61
2023/05/17 05:46:06;;;;;;;27.42;15.07;;;;;;;7.50;100.00;100179.47;5097532;28;20493;-61
2023/05/17 05:48:38;;;;;;;31.25;14.80;;;;;;;7.68;100.00;100173.59;5100339;28;20055;-61
2023/05/17 05:51:05;;;;;;;37.50;15.70;;;;;;;7.90;100.00;100168.94;5080464;28;20437;-61
2023/05/17 05:53:32;;;;;;;35.70;16.58;;;;;;;7.92;100.00;100182.91;5085003;28;20060;-61
2023/05/17 05:56:00;;;;;;;30.63;15.77;;;;;;;7.90;100.00;100187.63;5079967;28;20077;-61
2023/05/17 05:58:27;;;;;;;36.55;17.60;;;;;;;7.66;100.00;100190.81;5101271;28;20139;-61
2023/05/17 06:00:54;;;;;;;34.78;17.45;;;;;;;7.80;100.00;100187.19;5059148;28;20039;-62
2023/05/17 06:03:23;;;;;;;37.72;17.63;;;;;;;7.89;100.00;100194.00;5099673;28;20588;-62
2023/05/17 06:05:50;;;;;;;37.83;18.13;;;;;;;7.75;100.00;100200.31;5099974;28;20059;-61
2023/05/17 06:08:17;;;;;;;43.58;20.83;;;;;;;7.77;100.00;100201.75;5097181;28;20050;-62
2023/05/17 06:10:44;;;;;;;48.13;21.73;;;;;;;7.73;100.00;100205.84;5102997;28;20051;-62
2023/05/17 06:13:13;;;;;;;43.45;23.48;;;;;;;7.87;100.00;100201.38;5101016;28;20040;-61
2023/05/17 06:15:40;;;;;;;43.00;21.83;;;;;;;7.86;100.00;100202.41;5104454;28;20390;-61
2023/05/17 06:18:07;;;;;;;49.88;24.67;;;;;;;8.20;100.00;100200.63;5099483;28;20480;-62
2023/05/17 06:20:36;;;;;;;48.15;23.20;;;;;;;8.51;100.00;100207.25;5108965;28;20048;-62
2023/05/17 06:23:03;;;;;;;45.97;24.05;;;;;;;8.45;100.00;100213.44;5105310;28;20052;-61
2023/05/17 06:25:30;;;;;;;53.03;23.50;;;;;;;8.39;100.00;100215.03;5099940;28;20557;-61
2023/05/17 06:27:57;;;;;;;43.90;24.60;;;;;;;8.28;100.00;100224.47;5100853;28;20036;-63
2023/05/17 06:30:26;;;;;;;50.90;24.27;;;;;;;8.00;100.00;100212.06;5096968;28;20047;-62
2023/05/17 06:32:53;;;;;;;42.50;24.33;;;;;;;8.20;100.00;100216.66;5107310;28;20046;-63
2023/05/17 06:35:20;;;;;;;45.08;22.45;;;;;;;8.49;100.00;100217.34;5087284;28;20035;-60
2023/05/17 06:37:48;;;;;;;44.30;23.25;;;;;;;8.40;100.00;100219.38;5101967;28;20047;-63
2023/05/17 06:40:15;;;;;;;43.83;22.73;;;;;;;8.48;100.00;100219.16;5101204;28;20028;-63
2023/05/17 06:42:42;;;;;;;43.38;21.88;;;;;;;8.61;100.00;100224.53;5086444;28;20043;-62
2023/05/17 06:45:10;;;;;;;47.63;22.42;;;;;;;8.48;100.00;100229.03;5106505;28;20126;-62
2023/05/17 06:47:37;;;;;;;47.13;21.92;;;;;;;8.69;100.00;100231.53;5104863;28;20130;-63
2023/05/17 06:50:05;;;;;;;41.80;21.13;;;;;;;8.60;100.00;100232.75;5099132;28;20630;-64
2023/05/17 06:52:32;;;;;;;41.58;21.48;;;;;;;8.69;100.00;100236.88;5096706;28;20406;-62
2023/05/17 06:55:01;;;;;;;42.38;22.05;;;;;;;8.60;100.00;100227.41;5098012;28;20070;-63
2023/05/17 06:57:28;;;;;;;45.67;22.52;;;;;;;8.59;100.00;100228.44;5102601;28;20402;-63
2023/05/17 06:59:55;;;;;;;43.80;21.35;;;;;;;8.83;100.00;100237.69;5104240;28;20111;-62
2023/05/17 07:02:22;;;;;;;38.75;21.27;;;;;;;8.80;100.00;100236.25;5101440;28;20436;-62
2023/05/17 07:04:49;;;;;;;45.78;22.13;;;;;;;9.05;100.00;100240.97;5107304;28;20465;-62
2023/05/17 07:07:15;;;;;;;49.85;20.70;;;;;;;8.84;100.00;100244.69;5096904;28;20086;-62
2023/05/17 07:09:43;;;;;;;50.28;22.23;;;;;;;9.25;99.30;100241.75;5084972;28;20129;-62
2023/05/17 07:12:11;;;;;;;39.30;20.48;;;;;;;9.34;97.74;100237.00;5100927;27;20058;-62
2023/05/17 07:14:38;;;;;;;51.33;20.13;;;;;;;9.53;98.22;100245.19;5103857;28;20044;-62
2023/05/17 07:17:05;;;;;;;38.88;19.17;;;;;;;9.09;97.72;100242.19;5097097;28;20451;-62
2023/05/17 07:19:32;;;;;;;37.33;18.75;;;;;;;8.77;99.37;100239.34;5101964;28;20397;-62
2023/05/17 07:21:59;;;;;;;33.17;18.48;;;;;;;8.62;100.00;100247.56;5101299;28;20090;-62
2023/05/17 07:24:26;;;;;;;39.30;17.95;;;;;;;8.56;100.00;100243.03;5106374;27;20146;-62
2023/05/17 07:26:53;;;;;;;36.53;18.25;;;;;;;8.89;99.75;100246.75;5105023;27;20126;-62
2023/05/17 07:29:21;;;;;;;37.13;17.83;;;;;;;8.93;99.56;100242.63;5111203;27;20067;-62
2023/05/17 07:31:48;;;;;;;34.47;17.98;;;;;;;8.82;99.71;100239.53;5104991;28;20039;-62
2023/05/17 07:34:15;;;;;;;35.17;17.38;;;;;;;8.95;98.94;100245.91;5105035;27;20123;-62
2023/05/17 07:36:42;;;;;;;33.45;16.48;;;;;;;9.19;96.85;100244.44;5105121;28;20130;-62
2023/05/17 07:39:09;;;;;;;36.15;17.48;;;;;;;9.25;96.66;100246.28;5100547;28;20047;-62
2023/05/17 07:41:36;;;;;;;34.50;16.75;;;;;;;9.40;96.92;100246.03;5110204;27;20067;-62
2023/05/17 07:44:03;;;;;;;37.10;16.17;;;;;;;9.07;97.49;100249.59;5083025;28;20267;-62
2023/05/17 07:46:34;;;;;;;33.35;17.85;;;;;;;8.91;100.00;100250.88;5096814;28;20048;-62
2023/05/17 07:49:01;;;;;;;30.48;16.13;;;;;;;9.04;100.00;100253.50;5102542;28;20055;-62
2023/05/17 07:51:28;;;;;;;35.92;16.77;;;;;;;9.31;100.00;100258.00;5101280;28;20495;-62
2023/05/17 07:53:55;;;;;;;32.45;16.60;;;;;;;9.15;100.00;100253.91;5096062;28;20576;-62
2023/05/17 07:56:22;;;;;;;32.95;17.60;;;;;;;9.10;100.00;100254.53;5103297;28;20046;-62
2023/05/17 07:58:49;;;;;;;40.25;17.00;;;;;;;9.26;100.00;100253.25;5098753;28;20558;-62
2023/05/17 08:01:16;;;;;;;37.90;19.17;;;;;;;9.45;100.00;100262.28;5103832;28;20500;-62
2023/05/17 08:03:47;;;;;;;35.58;18.70;;;;;;;9.87;100.00;100262.78;5103819;28;20077;-62
2023/05/17 08:06:15;;;;;;;30.20;17.70;;;;;;;10.35;98.68;100262.34;5101023;28;20048;-63
2023/05/17 08:08:42;;;;;;;36.55;18.45;;;;;;;11.82;90.23;100273.41;5098039;28;20382;-62
2023/05/17 08:11:09;;;;;;;33.83;16.55;;;;;;;11.52;87.54;100265.28;5098855;28;20046;-62
2023/05/17 08:13:36;;;;;;;39.35;17.55;;;;;;;10.78;93.05;100261.63;5107264;27;20046;-62
2023/05/17 08:16:06;;;;;;;30.23;17.27;;;;;;;11.44;88.67;100261.03;5097227;28;20525;-62
2023/05/17 08:18:33;;;;;;;31.95;16.88;;;;;;;11.31;87.35;100255.81;5099858;28;20052;-62
2023/05/17 08:21:02;;;;;;;31.08;16.05;;;;;;;13.19;79.70;100261.06;5093025;28;20066;-62
2023/05/17 08:23:29;;;;;;;24.33;14.30;;;;;;;15.57;69.83;100252.44;5096967;28;20101;-62
2023/05/17 08:25:56;;;;;;;25.65;14.25;;;;;;;14.02;72.89;100259.88;5099776;28;20032;-62
2023/05/17 08:28:23;;;;;;;30.15;16.35;;;;;;;15.76;67.82;100258.38;5101579;28;20032;-61
2023/05/17 08:30:51;;;;;;;25.38;13.55;;;;;;;14.29;70.04;100267.41;5102524;28;20043;-63
2023/05/17 08:33:19;;;;;;;25.92;14.18;;;;;;;12.40;78.71;100271.22;5106542;28;20043;-62
2023/05/17 08:35:47;;;;;;;25.80;13.23;;;;;;;13.58;72.75;100269.50;5069347;28;20067;-62
2023/05/17 08:38:16;;;;;;;25.10;12.60;;;;;;;12.16;75.69;100263.09;5101742;28;20232;-61
2023/05/17 08:40:43;;;;;;;20.17;12.13;;;;;;;12.15;74.54;100264.13;5088548;28;20058;-61
2023/05/17 08:43:10;;;;;;;26.23;12.35;;;;;;;11.37;80.40;100262.13;5094974;28;20047;-61
2023/05/17 08:45:37;;;;;;;21.13;10.68;;;;;;;11.44;78.49;100261.03;5099545;28;20039;-61
2023/05/17 08:48:05;;;;;;;19.63;9.98;;;;;;;11.32;77.69;100265.47;5105201;28;20391;-62
2023/05/17 08:50:32;;;;;;;21.58;10.93;;;;;;;11.32;78.22;100262.81;5101483;28;20061;-61
2023/05/17 08:52:59;;;;;;;22.33;10.65;;;;;;;11.92;77.54;100272.09;5092914;28;20043;-61
2023/05/17 08:55:28;;;;;;;24.27;8.65;;;;;;;12.13;73.50;100260.88;5097460;28;20041;-61
2023/05/17 08:57:55;;;;;;;19.10;8.48;;;;;;;12.16;72.30;100268.47;5102724;28;20039;-60
2023/05/17 09:00:23;;;;;;;22.00;8.93;;;;;;;11.53;74.77;100263.41;5100042;28;20127;-60
2023/05/17 09:02:50;;;;;;;20.48;8.90;;;;;;;11.16;75.33;100268.75;5100901;28;20447;-62
2023/05/17 09:05:17;;;;;;;19.90;8.90;;;;;;;10.85;76.61;100267.75;5097333;27;20473;-60
2023/05/17 09:07:45;;;;;;;20.10;8.52;;;;;;;12.58;69.53;100265.81;5092757;27;20054;-61
2023/05/17 09:10:12;;;;;;;17.70;7.28;;;;;;;13.96;59.89;100246.56;5095696;28;20137;-60
2023/05/17 09:12:41;;;;;;;15.63;6.90;;;;;;;14.12;56.91;100255.75;5103448;28;20048;-60
2023/05/17 09:15:15;;;;;;;19.23;6.75;;;;;;;13.00;61.25;100254.97;5097164;28;20039;-60
2023/05/17 09:17:42;;;;;;;15.27;6.80;;;;;;;12.27;63.37;100265.00;5095239;28;20517;-60
2023/05/17 09:20:09;;;;;;;12.55;7.32;;;;;;;12.27;62.11;100264.19;5079935;28;20127;-60
2023/05/17 09:22:37;;;;;;;17.05;7.78;;;;;;;12.22;65.02;100266.72;5089937;28;20068;-60
2023/05/17 09:25:04;;;;;;;17.15;6.50;;;;;;;12.35;60.78;100253.09;5105491;28;20047;-60
2023/05/17 09:27:31;;;;;;;18.70;6.25;;;;;;;12.25;57.79;100261.72;5099561;28;20128;-63
2023/05/17 09:30:00;;;;;;;14.38;5.97;;;;;;;12.42;56.78;100247.63;5101963;28;20062;-62
2023/05/17 09:32:28;;;;;;;16.45;5.40;;;;;;;13.16;55.99;100259.66;5096612;28;20134;-62
2023/05/17 09:34:56;;;;;;;13.63;4.97;;;;;;;12.67;56.53;100259.03;5095653;28;20035;-62
2023/05/17 09:37:25;;;;;;;10.77;5.35;;;;;;;12.88;55.19;100262.22;5083199;28;20047;-62
2023/05/17 09:39:52;;;;;;;11.07;4.70;;;;;;;14.15;53.29;100263.34;5101746;28;20043;-62
2023/05/17 09:42:18;;;;;;;16.05;4.95;;;;;;;14.53;52.33;100248.41;5097525;28;20040;-62
2023/05/17 09:44:50;;;;;;;11.73;5.63;;;;;;;15.51;49.82;100246.16;5093211;28;20076;-62
2023/05/17 09:47:29;;;;;;;14.80;5.20;;;;;;;13.92;52.49;100248.09;5100046;28;20067;-61
2023/05/17 09:49:57;;;;;;;16.25;5.15;;;;;;;13.40;53.92;100251.59;5094061;28;20047;-62
2023/05/17 09:52:24;;;;;;;14.65;5.50;;;;;;;13.71;54.09;100252.25;5102182;28;20416;-62
2023/05/17 09:54:52;;;;;;;14.75;5.07;;;;;;;13.46;54.17;100255.25;5100251;28;20115;-61
2023/05/17 09:57:19;;;;;;;14.60;5.55;;;;;;;14.24;51.83;100243.84;5099600;28;20493;-61
2023/05/17 09:59:46;;;;;;;15.60;4.75;;;;;;;14.41;51.48;100241.19;5102321;28;20697;-62
2023/05/17 10:02:19;;;;;;;12.95;5.05;;;;;;;14.61;50.88;100250.75;5106655;28;20032;-61
2023/05/17 10:04:49;;;;;;;15.27;5.32;;;;;;;15.32;49.88;100254.56;5102554;28;20047;-61
2023/05/17 10:07:18;;;;;;;11.40;4.63;;;;;;;15.66;50.53;100251.75;5087656;28;20036;-62
2023/05/17 10:09:46;;;;;;;8.23;4.40;;;;;;;16.07;46.79;100241.44;5107991;28;20058;-61
2023/05/17 10:12:14;;;;;;;15.10;4.45;;;;;;;15.42;48.83;100247.63;5106203;27;20471;-61
2023/05/17 10:14:41;;;;;;;9.40;3.72;;;;;;;14.23;49.72;100250.31;5105018;28;20121;-61
2023/05/17 10:17:09;;;;;;;10.48;4.47;;;;;;;14.03;51.19;100242.66;5085077;28;20055;-61
2023/05/17 10:19:36;;;;;;;17.70;4.72;;;;;;;15.22;47.85;100240.88;5100887;28;20048;-61
2023/05/17 10:22:05;;;;;;;10.82;4.35;;;;;;;15.76;47.46;100248.38;5087733;28;20051;-61
2023/05/17 10:24:32;;;;;;;11.02;3.63;;;;;;;15.75;48.65;100249.47;5096852;28;20039;-61
2023/05/17 10:26:59;;;;;;;16.40;5.28;;;;;;;14.57;50.35;100236.91;5099820;28;20093;-62
2023/05/17 10:29:26;;;;;;;10.45;4.35;;;;;;;14.47;50.25;100244.78;5101751;28;20508;-61
2023/05/17 10:31:53;;;;;;;10.57;3.85;;;;;;;15.70;48.00;100234.00;5109482;28;20124;-61
2023/05/17 10:34:20;;;;;;;10.10;4.15;;;;;;;16.40;47.09;100242.31;5098138;28;20085;-61
2023/05/17 10:36:48;;;;;;;13.45;4.00;;;;;;;16.49;45.96;100243.47;5101099;27;20343;-61
2023/05/17 10:39:17;;;;;;;9.55;4.00;;;;;;;15.37;47.32;100229.47;5107318;28;20456;-61
2023/05/17 10:41:45;;;;;;;15.02;4.07;;;;;;;14.66;48.67;100226.53;5094071;28;20032;-61
2023/05/17 10:44:13;;;;;;;10.20;3.95;;;;;;;15.07;47.30;100227.16;5104103;28;20454;-61
2023/05/17 10:46:40;;;;;;;11.35;4.07;;;;;;;15.60;46.82;100225.75;5077534;28;20147;-61
2023/05/17 10:49:08;;;;;;;14.90;3.78;;;;;;;15.16;48.46;100231.09;5103044;28;20570;-61
2023/05/17 10:51:37;;;;;;;7.53;3.78;;;;;;;13.83;49.88;100223.41;5101507;28;20043;-61
2023/05/17 10:54:08;;;;;;;8.77;3.70;;;;;;;14.37;48.90;100223.03;5101226;28;20044;-61
2023/05/17 10:56:40;;;;;;;10.95;3.67;;;;;;;14.69;48.86;100220.66;5100387;28;20108;-61
2023/05/17 10:59:21;;;;;;;17.75;3.45;;;;;;;15.41;46.80;100224.41;5105809;28;20061;-61
2023/05/17 11:01:50;;;;;;;9.70;3.50;;;;;;;16.17;46.26;100224.50;5095190;28;20040;-61
2023/05/17 11:04:22;;;;;;;12.05;3.08;;;;;;;15.17;43.98;100216.50;5103374;28;20106;-62
2023/05/17 11:06:49;;;;;;;8.35;2.88;;;;;;;15.69;45.36;100205.31;5102947;28;20043;-60
2023/05/17 11:09:17;;;;;;;13.27;3.65;;;;;;;14.23;47.09;100206.38;5101930;28;20052;-60
2023/05/17 11:12:04;;;;;;;6.65;3.10;;;;;;;14.06;48.57;100211.72;5100631;28;20209;-61
2023/05/17 11:14:44;;;;;;;8.45;2.95;;;;;;;15.21;45.16;100206.84;5100755;28;20044;-60
2023/05/17 11:17:14;;;;;;;10.63;2.60;;;;;;;16.23;44.26;100204.56;5104140;28;20040;-60
2023/05/17 11:19:49;;;;;;;8.63;2.95;;;;;;;16.15;42.16;100197.72;5106078;28;20308;-60
2023/05/17 11:22:17;;;;;;;10.95;2.80;;;;;;;16.31;45.25;100197.88;5101407;28;20057;-60